createdAt,value
2017-12-02T00:00:01.282Z,0.97
2017-12-02T00:01:01.363Z,1.04
2017-12-02T00:02:01.061Z,1.06
2017-12-02T00:03:00.783Z,1.04
2017-12-02T00:04:01.298Z,1.08
2017-12-02T00:05:01.487Z,1.08
2017-12-02T00:06:00.706Z,1.07
2017-12-02T00:07:00.802Z,1.01
2017-12-02T00:08:01.461Z,1.03
2017-12-02T00:09:00.735Z,1.08
2017-12-02T00:10:00.872Z,1.1
2017-12-02T00:11:01.098Z,1.04
2017-12-02T00:12:01.091Z,1.07
2017-12-02T00:13:00.812Z,1.03
2017-12-02T00:14:00.785Z,0.98
2017-12-02T00:15:00.496Z,1.06
2017-12-02T00:16:00.468Z,1.03
2017-12-02T00:17:00.449Z,1.04
2017-12-02T00:18:00.694Z,1.06
2017-12-02T00:19:00.670Z,1.12
2017-12-02T00:20:00.643Z,1.15
2017-12-02T00:21:00.619Z,1.16
2017-12-02T00:22:00.596Z,1.18
2017-12-02T00:23:00.572Z,1.19
2017-12-02T00:24:00.694Z,1.24
2017-12-02T00:25:00.599Z,1.25
2017-12-02T00:26:00.768Z,1.22
2017-12-02T00:27:00.741Z,1.18
2017-12-02T00:28:00.723Z,1.18
2017-12-02T00:29:00.431Z,1.28
2017-12-02T00:30:00.145Z,1.32
2017-12-02T00:31:00.383Z,1.33
2017-12-02T00:32:00.092Z,1.33
2017-12-02T00:33:00.616Z,1.39
2017-12-02T00:34:00.062Z,1.36
2017-12-02T00:35:00.553Z,1.37
2017-12-02T00:36:00.267Z,1.37
2017-12-02T00:37:00.241Z,1.42
2017-12-02T00:38:00.216Z,1.39
2017-12-02T00:39:00.136Z,1.51
2017-12-02T00:40:00.452Z,1.43
2017-12-02T00:41:00.156Z,1.42
2017-12-02T00:42:00.421Z,1.47
2017-12-02T00:43:00.110Z,1.47
2017-12-02T00:43:59.815Z,1.44
2017-12-02T00:45:00.063Z,1.37
2017-12-02T00:46:00.029Z,1.47
2017-12-02T00:46:59.762Z,1.46
2017-12-02T00:47:59.985Z,1.46
2017-12-02T00:48:59.705Z,1.5
2017-12-02T00:49:59.946Z,1.44
2017-12-02T00:51:00.465Z,1.5
2017-12-02T00:51:59.897Z,1.5
2017-12-02T00:52:59.872Z,1.5
2017-12-02T00:53:59.848Z,1.5
2017-12-02T00:54:59.825Z,1.54
2017-12-02T00:55:59.813Z,1.47
2017-12-02T00:56:59.508Z,1.5
2017-12-02T00:57:59.767Z,1.52
2017-12-02T00:58:59.465Z,1.5
2017-12-02T00:59:59.971Z,1.54
2017-12-02T01:00:59.685Z,1.55
2017-12-02T01:01:59.943Z,1.51
2017-12-02T01:02:59.901Z,1.5
2017-12-02T01:03:59.350Z,1.5
2017-12-02T01:04:59.857Z,1.47
2017-12-02T01:05:59.838Z,1.5
2017-12-02T01:06:59.808Z,1.52
2017-12-02T01:07:59.519Z,1.52
2017-12-02T01:08:59.766Z,1.51
2017-12-02T01:09:59.738Z,1.57
2017-12-02T01:10:59.184Z,1.55
2017-12-02T01:11:59.437Z,1.51
2017-12-02T01:12:59.142Z,1.57
2017-12-02T01:13:59.656Z,1.52
2017-12-02T01:14:59.089Z,1.44
2017-12-02T01:15:59.122Z,1.44
2017-12-02T01:16:59.582Z,1.43
2017-12-02T01:17:59.035Z,1.46
2017-12-02T01:18:59.291Z,1.46
2017-12-02T01:19:59.249Z,1.4
2017-12-02T01:20:58.953Z,1.51
2017-12-02T01:21:59.197Z,1.51
2017-12-02T01:22:59.441Z,1.42
2017-12-02T01:23:58.879Z,1.47
2017-12-02T01:24:59.124Z,1.4
2017-12-02T01:25:59.416Z,1.46
2017-12-02T01:26:59.075Z,1.46
2017-12-02T01:27:59.339Z,1.54
2017-12-02T01:28:59.078Z,1.46
2017-12-02T01:29:59.010Z,1.42
2017-12-02T01:30:58.988Z,1.43
2017-12-02T01:31:59.246Z,1.46
2017-12-02T01:32:58.945Z,1.42
2017-12-02T01:33:59.196Z,1.44
2017-12-02T01:34:59.187Z,1.44
2017-12-02T01:35:59.140Z,1.51
2017-12-02T01:36:58.844Z,1.44
2017-12-02T01:37:59.050Z,1.39
2017-12-02T01:38:59.080Z,1.36
2017-12-02T01:39:58.781Z,1.42
2017-12-02T01:40:58.762Z,1.36
2017-12-02T01:41:58.473Z,1.39
2017-12-02T01:42:58.976Z,1.29
2017-12-02T01:43:58.697Z,1.36
2017-12-02T01:44:58.660Z,1.36
2017-12-02T01:45:58.648Z,1.37
2017-12-02T01:46:58.880Z,1.36
2017-12-02T01:47:58.931Z,1.37
2017-12-02T01:48:58.569Z,1.37
2017-12-02T01:49:58.817Z,1.39
2017-12-02T01:50:58.789Z,1.34
2017-12-02T01:51:58.250Z,1.29
2017-12-02T01:52:58.476Z,1.29
2017-12-02T01:53:58.196Z,1.29
2017-12-02T01:54:58.433Z,1.28
2017-12-02T01:55:58.400Z,1.28
2017-12-02T01:56:58.403Z,1.26
2017-12-02T01:57:58.365Z,1.29
2017-12-02T01:58:58.343Z,1.22
2017-12-02T01:59:58.323Z,1.24
2017-12-02T02:00:58.017Z,1.26
2017-12-02T02:01:57.993Z,1.18
2017-12-02T02:02:57.975Z,1.22
2017-12-02T02:03:58.212Z,1.28
2017-12-02T02:04:58.459Z,1.25
2017-12-02T02:05:58.426Z,1.22
2017-12-02T02:06:58.403Z,1.24
2017-12-02T02:07:57.857Z,1.24
2017-12-02T02:08:58.366Z,1.19
2017-12-02T02:09:58.145Z,1.18
2017-12-02T02:10:58.342Z,1.19
2017-12-02T02:11:58.531Z,1.21
2017-12-02T02:12:58.007Z,1.15
2017-12-02T02:13:58.243Z,1.16
2017-12-02T02:14:57.957Z,1.18
2017-12-02T02:15:57.932Z,1.12
2017-12-02T02:16:57.849Z,0.98
2017-12-02T02:17:57.886Z,1.04
2017-12-02T02:18:58.137Z,1.04
2017-12-02T02:19:57.846Z,1.06
2017-12-02T02:20:57.554Z,1.06
2017-12-02T02:21:58.179Z,1.04
2017-12-02T02:22:58.041Z,1.04
2017-12-02T02:23:57.751Z,0.98
2017-12-02T02:24:57.719Z,1
2017-12-02T02:25:57.828Z,1.12
2017-12-02T02:26:57.735Z,1.07
2017-12-02T02:27:57.915Z,1
2017-12-02T02:28:57.370Z,1.03
2017-12-02T02:29:57.600Z,1
2017-12-02T02:30:57.583Z,1.04
2017-12-02T02:31:57.343Z,1.03
2017-12-02T02:32:57.528Z,1.04
2017-12-02T02:33:57.783Z,0.97
2017-12-02T02:34:57.763Z,1.06
2017-12-02T02:35:57.201Z,0.96
2017-12-02T02:36:57.443Z,1.04
2017-12-02T02:37:57.687Z,0.97
2017-12-02T02:38:57.126Z,1
2017-12-02T02:39:57.630Z,1.01
2017-12-02T02:40:57.346Z,0.98
2017-12-02T02:41:57.062Z,1.01
2017-12-02T02:42:57.296Z,1.07
2017-12-02T02:43:57.323Z,1.01
2017-12-02T02:44:57.519Z,1.06
2017-12-02T02:45:57.500Z,1.04
2017-12-02T02:46:57.204Z,1.07
2017-12-02T02:47:57.195Z,1
2017-12-02T02:48:56.898Z,0.98
2017-12-02T02:49:57.133Z,1.08
2017-12-02T02:50:56.840Z,0.97
2017-12-02T02:51:57.089Z,1.07
2017-12-02T02:52:57.066Z,1.04
2017-12-02T02:53:57.039Z,0.98
2017-12-02T02:54:57.065Z,1.08
2017-12-02T02:55:56.730Z,1.03
2017-12-02T02:56:56.966Z,1.1
2017-12-02T02:57:57.208Z,0.98
2017-12-02T02:58:56.658Z,0.98
2017-12-02T02:59:56.894Z,1.03
2017-12-02T03:00:56.867Z,0.96
2017-12-02T03:01:57.106Z,1.04
2017-12-02T03:02:56.824Z,1.06
2017-12-02T03:03:56.535Z,1.03
2017-12-02T03:04:56.779Z,1.04
2017-12-02T03:05:56.757Z,1.07
2017-12-02T03:06:56.998Z,1.12
2017-12-02T03:07:56.711Z,1
2017-12-02T03:08:56.943Z,1
2017-12-02T03:09:56.396Z,1.06
2017-12-02T03:10:56.901Z,1.01
2017-12-02T03:11:56.613Z,1.03
2017-12-02T03:12:56.588Z,0.98
2017-12-02T03:13:56.301Z,1.06
2017-12-02T03:14:56.542Z,1
2017-12-02T03:15:56.255Z,1.01
2017-12-02T03:16:56.496Z,1.03
2017-12-02T03:17:56.793Z,1.03
2017-12-02T03:18:56.713Z,1.03
2017-12-02T03:19:56.686Z,1.08
2017-12-02T03:20:56.396Z,1.08
2017-12-02T03:21:56.374Z,1.06
2017-12-02T03:22:56.086Z,1.06
2017-12-02T03:23:56.336Z,1.06
2017-12-02T03:24:56.307Z,1.04
2017-12-02T03:25:56.014Z,1.12
2017-12-02T03:26:55.992Z,1.22
2017-12-02T03:27:56.499Z,1.1
2017-12-02T03:28:56.208Z,1.15
2017-12-02T03:29:56.455Z,1.18
2017-12-02T03:30:56.166Z,1.18
2017-12-02T03:31:55.873Z,1.18
2017-12-02T03:32:56.116Z,1.15
2017-12-02T03:33:56.094Z,1.15
2017-12-02T03:34:56.329Z,1.18
2017-12-02T03:35:55.779Z,1.15
2017-12-02T03:36:55.758Z,1.14
2017-12-02T03:37:55.935Z,1.15
2017-12-02T03:38:56.237Z,1.15
2017-12-02T03:39:56.220Z,1.18
2017-12-02T03:40:55.926Z,1.15
2017-12-02T03:41:56.170Z,1.21
2017-12-02T03:42:55.618Z,1.19
2017-12-02T03:43:55.860Z,1.18
2017-12-02T03:44:55.572Z,1.12
2017-12-02T03:45:56.074Z,1.1
2017-12-02T03:46:56.051Z,1.16
2017-12-02T03:47:56.028Z,1.12
2017-12-02T03:48:56.004Z,1.1
2017-12-02T03:49:55.988Z,1.06
2017-12-02T03:50:55.692Z,1.03
2017-12-02T03:51:55.936Z,1.14
2017-12-02T03:52:55.905Z,1.01
2017-12-02T03:53:55.628Z,1.01
2017-12-02T03:54:55.597Z,1.06
2017-12-02T03:55:55.836Z,1.06
2017-12-02T03:56:55.811Z,1.04
2017-12-02T03:57:55.527Z,1.16
2017-12-02T03:58:55.505Z,1.01
2017-12-02T03:59:55.747Z,1.06
2017-12-02T04:00:55.730Z,1.14
2017-12-02T04:01:55.428Z,1.06
2017-12-02T04:02:55.673Z,1.04
2017-12-02T04:03:55.387Z,1.06
2017-12-02T04:04:55.367Z,1.07
2017-12-02T04:05:55.605Z,1.06
2017-12-02T04:06:55.575Z,1.08
2017-12-02T04:07:55.564Z,0.98
2017-12-02T04:08:55.267Z,1.08
2017-12-02T04:09:54.975Z,1.04
2017-12-02T04:10:55.218Z,1.01
2017-12-02T04:11:55.204Z,1.1
2017-12-02T04:12:55.437Z,1.07
2017-12-02T04:13:54.881Z,1
2017-12-02T04:14:55.396Z,1.01
2017-12-02T04:15:54.831Z,1.03
2017-12-02T04:16:55.079Z,1.01
2017-12-02T04:17:55.322Z,1
2017-12-02T04:18:55.029Z,1.04
2017-12-02T04:19:55.275Z,1.04
2017-12-02T04:20:54.981Z,1.16
2017-12-02T04:21:54.962Z,1.14
2017-12-02T04:22:54.676Z,1.15
2017-12-02T04:23:54.964Z,1.14
2017-12-02T04:24:55.154Z,1.03
2017-12-02T04:25:55.123Z,1.12
2017-12-02T04:26:55.123Z,1.16
2017-12-02T04:27:54.556Z,1.14
2017-12-02T04:28:54.791Z,1.04
2017-12-02T04:29:55.032Z,1.03
2017-12-02T04:30:54.745Z,1.12
2017-12-02T04:31:54.717Z,1.07
2017-12-02T04:32:54.437Z,1.12
2017-12-02T04:33:54.407Z,1.1
2017-12-02T04:34:54.389Z,1.04
2017-12-02T04:35:54.625Z,1.04
2017-12-02T04:36:54.598Z,1.06
2017-12-02T04:37:54.846Z,1.1
2017-12-02T04:38:54.553Z,1.07
2017-12-02T04:39:54.538Z,1.07
2017-12-02T04:40:54.776Z,1.12
2017-12-02T04:41:54.487Z,1.03
2017-12-02T04:42:54.457Z,1.04
2017-12-02T04:43:54.436Z,1.06
2017-12-02T04:44:54.684Z,1.06
2017-12-02T04:45:54.136Z,1.1
2017-12-02T04:46:54.366Z,1.14
2017-12-02T04:47:54.611Z,1.14
2017-12-02T04:48:54.591Z,1.14
2017-12-02T04:49:54.558Z,1.15
2017-12-02T04:50:54.537Z,1.15
2017-12-02T04:51:53.981Z,1.08
2017-12-02T04:52:54.489Z,1.14
2017-12-02T04:53:54.464Z,1.15
2017-12-02T04:54:54.175Z,1.15
2017-12-02T04:55:54.422Z,1.14
2017-12-02T04:56:54.125Z,1.15
2017-12-02T04:57:54.370Z,1.14
2017-12-02T04:58:54.077Z,1.15
2017-12-02T04:59:54.326Z,1.16
2017-12-02T05:00:54.029Z,1.12
2017-12-02T05:01:54.007Z,1.16
2017-12-02T05:02:53.994Z,1.12
2017-12-02T05:03:54.242Z,1.15
2017-12-02T05:04:54.203Z,1.12
2017-12-02T05:05:53.917Z,1.15
2017-12-02T05:06:54.162Z,1.14
2017-12-02T05:07:53.872Z,1.15
2017-12-02T05:08:53.853Z,1.19
2017-12-02T05:09:53.824Z,1.22
2017-12-02T05:10:54.062Z,1.16
2017-12-02T05:11:54.038Z,1.15
2017-12-02T05:12:53.749Z,1.14
2017-12-02T05:13:53.994Z,1.21
2017-12-02T05:14:53.711Z,1.22
2017-12-02T05:15:53.681Z,1.19
2017-12-02T05:16:53.654Z,1.24
2017-12-02T05:17:53.897Z,1.21
2017-12-02T05:18:53.871Z,1.28
2017-12-02T05:19:53.847Z,1.21
2017-12-02T05:20:53.579Z,1.15
2017-12-02T05:21:53.545Z,1.24
2017-12-02T05:22:53.512Z,1.22
2017-12-02T05:23:53.494Z,1.16
2017-12-02T05:24:53.205Z,1.18
2017-12-02T05:25:53.189Z,1.15
2017-12-02T05:26:53.683Z,1.19
2017-12-02T05:27:53.128Z,1.22
2017-12-02T05:28:53.105Z,1.18
2017-12-02T05:29:53.354Z,1.08
2017-12-02T05:30:53.586Z,1.01
2017-12-02T05:31:53.578Z,1.01
2017-12-02T05:32:53.290Z,1.06
2017-12-02T05:33:52.991Z,1
2017-12-02T05:34:53.493Z,1.15
2017-12-02T05:35:52.944Z,1.12
2017-12-02T05:36:53.180Z,1.21
2017-12-02T05:37:53.655Z,1.07
2017-12-02T05:38:52.873Z,1.08
2017-12-02T05:39:53.114Z,1.1
2017-12-02T05:40:53.092Z,1.1
2017-12-02T05:41:53.338Z,1.14
2017-12-02T05:42:53.044Z,1.16
2017-12-02T05:43:53.017Z,1.12
2017-12-02T05:44:53.265Z,1.01
2017-12-02T05:45:52.710Z,0.97
2017-12-02T05:46:52.950Z,1.06
2017-12-02T05:47:53.190Z,0.9
2017-12-02T05:48:52.898Z,1.01
2017-12-02T05:49:52.874Z,0.9
2017-12-02T05:50:53.127Z,0.89
2017-12-02T05:51:52.566Z,0.86
2017-12-02T05:52:52.809Z,0.92
2017-12-02T05:53:52.789Z,1.04
2017-12-02T05:54:52.759Z,0.92
2017-12-02T05:55:52.472Z,0.96
2017-12-02T05:56:52.712Z,0.9
2017-12-02T05:57:52.423Z,0.92
2017-12-02T05:58:52.666Z,0.96
2017-12-02T05:59:52.907Z,0.92
2017-12-02T06:00:52.675Z,0.98
2017-12-02T06:01:52.596Z,1.01
2017-12-02T06:02:52.309Z,0.97
2017-12-02T06:03:52.547Z,0.94
2017-12-02T06:04:52.257Z,0.98
2017-12-02T06:05:52.765Z,0.94
2017-12-02T06:06:52.214Z,0.97
2017-12-02T06:07:52.715Z,1.03
2017-12-02T06:08:52.693Z,1.06
2017-12-02T06:09:52.401Z,1.08
2017-12-02T06:10:52.641Z,1
2017-12-02T06:11:52.620Z,0.88
2017-12-02T06:12:52.072Z,0.96
2017-12-02T06:13:52.045Z,1.08
2017-12-02T06:14:52.549Z,0.96
2017-12-02T06:15:52.001Z,1
2017-12-02T06:16:52.239Z,0.94
2017-12-02T06:17:52.214Z,1.01
2017-12-02T06:18:52.456Z,1.03
2017-12-02T06:19:52.432Z,1.01
2017-12-02T06:20:52.142Z,1.04
2017-12-02T06:21:52.126Z,0.97
2017-12-02T06:22:52.385Z,0.94
2017-12-02T06:23:51.808Z,1.01
2017-12-02T06:24:52.318Z,0.94
2017-12-02T06:25:51.768Z,1.04
2017-12-02T06:26:51.999Z,1.08
2017-12-02T06:27:52.238Z,0.97
2017-12-02T06:28:51.688Z,1.06
2017-12-02T06:29:51.928Z,1.06
2017-12-02T06:30:51.655Z,1.01
2017-12-02T06:31:52.152Z,1.03
2017-12-02T06:32:51.595Z,1.06
2017-12-02T06:33:51.566Z,1.01
2017-12-02T06:34:52.080Z,1.08
2017-12-02T06:35:52.053Z,1.08
2017-12-02T06:36:51.764Z,0.98
2017-12-02T06:37:51.741Z,1.06
2017-12-02T06:38:51.715Z,1.07
2017-12-02T06:39:51.696Z,1.04
2017-12-02T06:40:51.939Z,1.12
2017-12-02T06:41:51.907Z,1
2017-12-02T06:42:51.617Z,1.03
2017-12-02T06:43:51.863Z,1.19
2017-12-02T06:44:51.575Z,1.15
2017-12-02T06:45:51.815Z,1.14
2017-12-02T06:46:51.533Z,1.16
2017-12-02T06:47:51.510Z,1.14
2017-12-02T06:48:51.216Z,1.16
2017-12-02T06:49:51.722Z,1.21
2017-12-02T06:50:51.431Z,1.18
2017-12-02T06:51:51.738Z,1.21
2017-12-02T06:52:51.391Z,1.18
2017-12-02T06:53:51.358Z,1.15
2017-12-02T06:54:51.602Z,1.16
2017-12-02T06:55:51.052Z,1.14
2017-12-02T06:56:51.557Z,1.1
2017-12-02T06:57:51.265Z,1
2017-12-02T06:58:51.250Z,1.14
2017-12-02T06:59:51.221Z,1.04
2017-12-02T07:00:51.197Z,1.1
2017-12-02T07:01:51.179Z,1.03
2017-12-02T07:02:51.174Z,1
2017-12-02T07:03:51.130Z,1.01
2017-12-02T07:04:50.837Z,1.06
2017-12-02T07:05:51.362Z,1.06
2017-12-02T07:06:51.057Z,1.14
2017-12-02T07:07:50.765Z,1.15
2017-12-02T07:08:51.012Z,1.16
2017-12-02T07:09:50.988Z,1.14
2017-12-02T07:10:51.225Z,1.16
2017-12-02T07:11:51.206Z,1.16
2017-12-02T07:12:50.647Z,1.18
2017-12-02T07:13:50.894Z,1.24
2017-12-02T07:14:51.128Z,1.18
2017-12-02T07:15:50.581Z,1.15
2017-12-02T07:16:50.822Z,1.32
2017-12-02T07:17:50.795Z,1.33
2017-12-02T07:18:50.782Z,1.36
2017-12-02T07:19:50.492Z,1.33
2017-12-02T07:20:50.990Z,1.29
2017-12-02T07:21:50.966Z,1.25
2017-12-02T07:22:50.682Z,1.33
2017-12-02T07:23:50.668Z,1.36
2017-12-02T07:24:50.633Z,1.15
2017-12-02T07:25:50.346Z,1.18
2017-12-02T07:26:50.585Z,1.18
2017-12-02T07:27:50.562Z,1.14
2017-12-02T07:28:50.540Z,1.25
2017-12-02T07:29:50.517Z,1.16
2017-12-02T07:30:50.761Z,1.19
2017-12-02T07:31:50.470Z,1.19
2017-12-02T07:32:50.452Z,1.22
2017-12-02T07:33:50.153Z,1.22
2017-12-02T07:34:50.392Z,1.16
2017-12-02T07:35:50.639Z,1.19
2017-12-02T07:36:50.364Z,1.19
2017-12-02T07:37:50.328Z,1.18
2017-12-02T07:38:50.309Z,1.14
2017-12-02T07:39:50.546Z,1.19
2017-12-02T07:40:50.516Z,1.18
2017-12-02T07:41:50.231Z,1.18
2017-12-02T07:42:49.947Z,1.22
2017-12-02T07:43:50.184Z,1.21
2017-12-02T07:44:50.175Z,1.18
2017-12-02T07:45:49.874Z,1.18
2017-12-02T07:46:50.119Z,1.18
2017-12-02T07:47:50.343Z,1.16
2017-12-02T07:48:50.335Z,1.19
2017-12-02T07:49:50.311Z,1.16
2017-12-02T07:50:50.290Z,1.22
2017-12-02T07:51:50.264Z,1.22
2017-12-02T07:52:49.983Z,1.16
2017-12-02T07:53:49.950Z,1.19
2017-12-02T07:54:49.926Z,1.15
2017-12-02T07:55:50.175Z,1.18
2017-12-02T07:56:49.880Z,1.14
2017-12-02T07:57:49.859Z,1.16
2017-12-02T07:58:49.569Z,1.21
2017-12-02T07:59:50.076Z,1.15
2017-12-02T08:00:50.065Z,1.19
2017-12-02T08:01:49.782Z,1.16
2017-12-02T08:02:50.005Z,1.12
2017-12-02T08:03:49.985Z,1.08
2017-12-02T08:04:49.437Z,1.1
2017-12-02T08:05:49.677Z,1.1
2017-12-02T08:06:49.381Z,1.04
2017-12-02T08:07:49.362Z,0.97
2017-12-02T08:08:49.606Z,1.03
2017-12-02T08:09:49.311Z,1.01
2017-12-02T08:10:49.822Z,1
2017-12-02T08:11:49.534Z,0.98
2017-12-02T08:12:49.767Z,0.98
2017-12-02T08:13:49.221Z,1.03
2017-12-02T08:14:49.730Z,1.03
2017-12-02T08:15:49.694Z,1
2017-12-02T08:16:49.407Z,1.01
2017-12-02T08:17:49.444Z,1.01
2017-12-02T08:18:49.365Z,1.06
2017-12-02T08:19:49.342Z,0.97
2017-12-02T08:20:49.324Z,0.98
2017-12-02T08:21:49.025Z,1
2017-12-02T08:22:49.535Z,0.97
2017-12-02T08:23:49.506Z,0.94
2017-12-02T08:24:49.223Z,1.01
2017-12-02T08:25:48.933Z,1.07
2017-12-02T08:26:49.180Z,1.06
2017-12-02T08:27:48.887Z,1.06
2017-12-02T08:28:49.393Z,1.12
2017-12-02T08:29:49.365Z,1.14
2017-12-02T08:30:49.346Z,1.16
2017-12-02T08:31:48.791Z,1.12
2017-12-02T08:32:49.029Z,1.16
2017-12-02T08:33:49.289Z,1.18
2017-12-02T08:34:48.992Z,1.19
2017-12-02T08:35:49.225Z,1.15
2017-12-02T08:36:48.945Z,1.12
2017-12-02T08:37:48.912Z,1.15
2017-12-02T08:38:48.896Z,1.06
2017-12-02T08:39:48.872Z,1.08
2017-12-02T08:40:49.104Z,1.03
2017-12-02T08:41:48.821Z,1.01
2017-12-02T08:42:48.818Z,1.04
2017-12-02T08:43:48.776Z,1.06
2017-12-02T08:44:48.483Z,0.97
2017-12-02T08:45:48.723Z,0.97
2017-12-02T08:46:48.441Z,1.01
2017-12-02T08:47:48.945Z,0.97
2017-12-02T08:48:48.978Z,0.92
2017-12-02T08:49:48.632Z,1.01
2017-12-02T08:50:48.610Z,0.94
2017-12-02T08:51:48.321Z,0.98
2017-12-02T08:52:48.562Z,0.92
2017-12-02T08:53:48.272Z,0.97
2017-12-02T08:54:48.514Z,0.94
2017-12-02T08:55:48.493Z,1.04
2017-12-02T08:56:48.474Z,1.07
2017-12-02T08:57:48.709Z,1
2017-12-02T08:58:48.686Z,1
2017-12-02T08:59:48.400Z,1.06
2017-12-02T09:00:48.635Z,0.97
2017-12-02T09:01:48.615Z,1.1
2017-12-02T09:02:48.064Z,1.04
2017-12-02T09:03:48.301Z,1.04
2017-12-02T09:04:48.545Z,1.08
2017-12-02T09:05:48.523Z,1.1
2017-12-02T09:06:48.232Z,1.18
2017-12-02T09:07:48.480Z,1.06
2017-12-02T09:08:48.243Z,1.04
2017-12-02T09:09:48.164Z,1.04
2017-12-02T09:10:47.871Z,1.08
2017-12-02T09:11:48.113Z,1.07
2017-12-02T09:12:48.093Z,1.04
2017-12-02T09:13:48.342Z,1.12
2017-12-02T09:14:48.313Z,1
2017-12-02T09:15:48.025Z,1.06
2017-12-02T09:16:47.739Z,1.07
2017-12-02T09:17:47.713Z,1.06
2017-12-02T09:18:48.223Z,1.01
2017-12-02T09:19:47.664Z,1.01
2017-12-02T09:20:48.164Z,1.03
2017-12-02T09:21:47.613Z,1.01
2017-12-02T09:22:48.124Z,1.08
2017-12-02T09:23:48.097Z,1.1
2017-12-02T09:24:48.088Z,1.1
2017-12-02T09:25:47.795Z,1.16
2017-12-02T09:26:47.504Z,1.18
2017-12-02T09:27:47.737Z,1.18
2017-12-02T09:28:47.719Z,1.19
2017-12-02T09:29:47.959Z,1.19
2017-12-02T09:30:47.990Z,1.19
2017-12-02T09:31:47.642Z,1.19
2017-12-02T09:32:47.623Z,1.18
2017-12-02T09:33:47.924Z,1.16
2017-12-02T09:34:47.576Z,1.32
2017-12-02T09:35:47.814Z,1.32
2017-12-02T09:36:47.540Z,1.26
2017-12-02T09:37:47.244Z,1.21
2017-12-02T09:38:47.951Z,1.18
2017-12-02T09:39:47.727Z,1.14
2017-12-02T09:40:47.448Z,1.12
2017-12-02T09:41:47.672Z,1
2017-12-02T09:42:47.385Z,1.03
2017-12-02T09:43:47.365Z,1.06
2017-12-02T09:44:47.081Z,1.04
2017-12-02T09:45:47.323Z,1.1
2017-12-02T09:46:47.562Z,1.01
2017-12-02T09:47:47.537Z,1
2017-12-02T09:48:47.258Z,0.98
2017-12-02T09:49:47.227Z,1
2017-12-02T09:50:47.205Z,1.12
2017-12-02T09:51:46.912Z,1.04
2017-12-02T09:52:47.414Z,1.06
2017-12-02T09:53:47.133Z,1.01
2017-12-02T09:54:47.106Z,1.07
2017-12-02T09:55:47.352Z,1.08
2017-12-02T09:56:47.058Z,1.07
2017-12-02T09:57:46.779Z,1.01
2017-12-02T09:58:47.070Z,1.06
2017-12-02T09:59:46.729Z,1.12
2017-12-02T10:00:47.296Z,1.19
2017-12-02T10:01:46.945Z,1.19
2017-12-02T10:02:47.233Z,1.24
2017-12-02T10:03:46.898Z,1.24
2017-12-02T10:04:47.141Z,1.16
2017-12-02T10:05:46.852Z,1.33
2017-12-02T10:06:46.865Z,1.16
2017-12-02T10:07:46.806Z,1.18
2017-12-02T10:08:47.048Z,1.15
2017-12-02T10:09:46.494Z,1.18
2017-12-02T10:10:46.732Z,1.15
2017-12-02T10:11:46.710Z,1.12
2017-12-02T10:12:46.954Z,1.21
2017-12-02T10:13:46.930Z,1.22
2017-12-02T10:14:46.647Z,1.19
2017-12-02T10:15:46.616Z,1.16
2017-12-02T10:16:46.592Z,1.36
2017-12-02T10:17:46.567Z,1.32
2017-12-02T10:18:46.808Z,1.36
2017-12-02T10:19:46.257Z,1.37
2017-12-02T10:20:46.505Z,1.32
2017-12-02T10:21:46.476Z,1.28
2017-12-02T10:22:46.460Z,1.33
2017-12-02T10:23:46.433Z,1.4
2017-12-02T10:24:46.148Z,1.36
2017-12-02T10:25:46.655Z,1.37
2017-12-02T10:26:46.363Z,1.33
2017-12-02T10:27:46.610Z,1.4
2017-12-02T10:28:46.317Z,1.39
2017-12-02T10:29:46.033Z,1.39
2017-12-02T10:30:46.007Z,1.37
2017-12-02T10:31:46.253Z,1.39
2017-12-02T10:32:46.486Z,1.32
2017-12-02T10:33:45.935Z,1.26
2017-12-02T10:34:45.912Z,1.32
2017-12-02T10:35:46.420Z,1.18
2017-12-02T10:36:45.867Z,1.29
2017-12-02T10:37:46.112Z,1.33
2017-12-02T10:38:46.343Z,1.29
2017-12-02T10:39:46.067Z,1.28
2017-12-02T10:40:46.304Z,1.28
2017-12-02T10:41:46.026Z,1.21
2017-12-02T10:42:45.991Z,1.18
2017-12-02T10:43:46.230Z,1.19
2017-12-02T10:44:46.224Z,1.18
2017-12-02T10:45:46.241Z,1.22
2017-12-02T10:46:45.639Z,1.19
2017-12-02T10:47:45.875Z,1.15
2017-12-02T10:48:45.850Z,1.16
2017-12-02T10:49:45.567Z,1.21
2017-12-02T10:50:46.068Z,1.16
2017-12-02T10:51:45.782Z,1.26
2017-12-02T10:52:45.499Z,1.14
2017-12-02T10:53:45.734Z,1.14
2017-12-02T10:54:45.980Z,1.15
2017-12-02T10:55:45.422Z,1.14
2017-12-02T10:56:45.937Z,1.14
2017-12-02T10:57:45.657Z,1.18
2017-12-02T10:58:45.618Z,1.16
2017-12-02T10:59:45.598Z,1.22
2017-12-02T11:00:45.310Z,1.21
2017-12-02T11:01:45.282Z,1.26
2017-12-02T11:02:45.847Z,1.18
2017-12-02T11:03:45.236Z,1.32
2017-12-02T11:04:45.488Z,1.25
2017-12-02T11:05:45.191Z,1.34
2017-12-02T11:06:45.746Z,1.28
2017-12-02T11:07:45.684Z,1.37
2017-12-02T11:08:45.121Z,1.43
2017-12-02T11:09:45.360Z,1.34
2017-12-02T11:10:45.074Z,1.4
2017-12-02T11:11:45.322Z,1.29
2017-12-02T11:12:45.561Z,1.26
2017-12-02T11:13:45.606Z,1.24
2017-12-02T11:14:45.522Z,1.19
2017-12-02T11:15:45.241Z,1.21
2017-12-02T11:16:45.470Z,1.22
2017-12-02T11:17:45.174Z,1.22
2017-12-02T11:18:45.154Z,1.19
2017-12-02T11:19:45.136Z,1.16
2017-12-02T11:20:45.120Z,1.19
2017-12-02T11:21:45.088Z,1.12
2017-12-02T11:22:45.333Z,1.16
2017-12-02T11:23:45.041Z,1.21
2017-12-02T11:24:45.021Z,1.25
2017-12-02T11:25:44.997Z,1.36
2017-12-02T11:26:44.984Z,1.34
2017-12-02T11:27:45.218Z,1.29
2017-12-02T11:28:44.923Z,1.21
2017-12-02T11:29:44.905Z,1.18
2017-12-02T11:30:44.888Z,1.37
2017-12-02T11:31:45.126Z,1.19
2017-12-02T11:32:44.836Z,1.16
2017-12-02T11:33:44.564Z,1.14
2017-12-02T11:34:44.788Z,1.1
2017-12-02T11:35:45.026Z,1.03
2017-12-02T11:36:44.769Z,1.14
2017-12-02T11:37:44.736Z,1.14
2017-12-02T11:38:44.909Z,1.14
2017-12-02T11:39:44.406Z,1.14
2017-12-02T11:40:44.379Z,1.08
2017-12-02T11:41:44.360Z,1.14
2017-12-02T11:42:44.601Z,1.07
2017-12-02T11:43:44.587Z,1.1
2017-12-02T11:44:44.560Z,1.08
2017-12-02T11:45:44.542Z,1.03
2017-12-02T11:46:44.769Z,1.06
2017-12-02T11:47:44.513Z,1
2017-12-02T11:48:44.481Z,1.07
2017-12-02T11:49:44.190Z,1
2017-12-02T11:50:44.418Z,1.14
2017-12-02T11:51:44.140Z,1.19
2017-12-02T11:52:44.644Z,1.16
2017-12-02T11:53:44.618Z,1.18
2017-12-02T11:54:44.592Z,1.24
2017-12-02T11:55:44.315Z,1.37
2017-12-02T11:56:44.290Z,1.19
2017-12-02T11:57:44.272Z,1.21
2017-12-02T11:58:44.227Z,1.32
2017-12-02T11:59:44.486Z,1.34
2017-12-02T12:00:44.466Z,1.36
2017-12-02T12:01:44.242Z,1.33
2017-12-02T12:02:44.142Z,1.32
2017-12-02T12:03:44.139Z,1.28
2017-12-02T12:04:44.356Z,1.21
2017-12-02T12:05:44.071Z,1.24
2017-12-02T12:06:44.050Z,1.24
2017-12-02T12:07:43.770Z,1.18
2017-12-02T12:08:44.003Z,1.19
2017-12-02T12:09:43.975Z,1.21
2017-12-02T12:10:43.692Z,1.22
2017-12-02T12:11:44.212Z,1.21
2017-12-02T12:12:43.928Z,1.19
2017-12-02T12:13:44.161Z,1.22
2017-12-02T12:14:43.859Z,1.21
2017-12-02T12:15:43.865Z,1.26
2017-12-02T12:16:43.818Z,1.22
2017-12-02T12:17:44.067Z,1.32
2017-12-02T12:18:44.034Z,1.34
2017-12-02T12:19:44.009Z,1.24
2017-12-02T12:20:43.983Z,1.26
2017-12-02T12:21:43.445Z,1.26
2017-12-02T12:22:43.675Z,1.21
2017-12-02T12:23:43.921Z,1.18
2017-12-02T12:24:43.631Z,1.15
2017-12-02T12:25:43.607Z,1.1
2017-12-02T12:26:43.599Z,1.16
2017-12-02T12:27:43.831Z,1.18
2017-12-02T12:28:43.259Z,1.16
2017-12-02T12:29:43.498Z,0.97
2017-12-02T12:30:43.745Z,1.1
2017-12-02T12:31:43.467Z,1.1
2017-12-02T12:32:43.425Z,1.07
2017-12-02T12:33:43.679Z,1.06
2017-12-02T12:34:43.120Z,1.12
2017-12-02T12:35:43.095Z,1.14
2017-12-02T12:36:43.094Z,1.14
2017-12-02T12:37:43.315Z,1.08
2017-12-02T12:38:43.034Z,1.04
2017-12-02T12:39:43.531Z,1.15
2017-12-02T12:40:43.263Z,1.03
2017-12-02T12:41:42.954Z,1.03
2017-12-02T12:42:43.197Z,1.07
2017-12-02T12:43:42.904Z,1.14
2017-12-02T12:44:43.150Z,1.18
2017-12-02T12:45:43.130Z,1.14
2017-12-02T12:46:42.843Z,1.18
2017-12-02T12:47:43.076Z,1.16
2017-12-02T12:48:43.053Z,1.15
2017-12-02T12:49:43.311Z,1.19
2017-12-02T12:50:43.005Z,1.19
2017-12-02T12:51:43.248Z,1.19
2017-12-02T12:52:42.960Z,1.24
2017-12-02T12:53:42.937Z,1.21
2017-12-02T12:54:43.174Z,1.26
2017-12-02T12:55:44.783Z,1.28
2017-12-02T12:56:42.870Z,1.21
2017-12-02T12:57:42.843Z,1.19
2017-12-02T12:58:42.554Z,1.19
2017-12-02T12:59:43.059Z,1.21
2017-12-02T13:00:42.799Z,1.22
2017-12-02T13:01:42.762Z,1.25
2017-12-02T13:02:42.721Z,1.21
2017-12-02T13:03:42.977Z,1.19
2017-12-02T13:04:42.677Z,1.21
2017-12-02T13:05:42.913Z,1.34
2017-12-02T13:06:42.624Z,1.22
2017-12-02T13:07:42.624Z,1.24
2017-12-02T13:08:42.847Z,1.25
2017-12-02T13:09:42.558Z,1.29
2017-12-02T13:10:42.536Z,1.36
2017-12-02T13:11:42.514Z,1.42
2017-12-02T13:12:43.083Z,1.36
2017-12-02T13:13:42.879Z,1.29
2017-12-02T13:14:43.452Z,1.36
2017-12-02T13:15:43.489Z,1.4
2017-12-02T13:16:42.655Z,1.34
2017-12-02T13:17:42.372Z,1.36
2017-12-02T13:18:42.598Z,1.39
2017-12-02T13:19:42.890Z,1.28
2017-12-02T13:20:42.352Z,1.21
2017-12-02T13:21:43.061Z,1.22